createdAt,value
2023-04-02T00:01:44.096Z,6.32
2023-04-02T00:04:30.140Z,3.13
2023-04-02T00:07:31.008Z,2.55
2023-04-02T00:10:37.912Z,5.50
2023-04-02T00:13:44.773Z,4.45
2023-04-02T00:16:32.953Z,2.25
2023-04-02T00:19:25.878Z,4.30
2023-04-02T00:22:17.458Z,8.00
2023-04-02T00:25:11.363Z,7.75
2023-04-02T00:27:57.393Z,8.68
2023-04-02T00:30:51.078Z,4.30
2023-04-02T00:33:37.967Z,3.10
2023-04-02T00:36:26.645Z,5.72
2023-04-02T00:39:42.436Z,5.10
2023-04-02T00:42:31.197Z,3.63
2023-04-02T00:45:24.660Z,4.90
2023-04-02T00:48:45.698Z,5.25
2023-04-02T00:52:13.732Z,5.50
2023-04-02T00:55:13.858Z,3.20
2023-04-02T00:58:00.816Z,3.97
2023-04-02T01:00:50.683Z,3.90
2023-04-02T01:03:37.852Z,7.93
2023-04-02T01:06:34.310Z,2.85
2023-04-02T01:09:46.166Z,4.22
2023-04-02T01:12:56.015Z,3.65
2023-04-02T01:15:48.236Z,4.88
2023-04-02T01:19:21.669Z,2.35
2023-04-02T01:22:10.457Z,2.92
2023-04-02T01:25:00.650Z,2.38
2023-04-02T01:28:15.350Z,2.10
2023-04-02T01:31:03.518Z,6.63
2023-04-02T01:33:50.387Z,2.63
2023-04-02T01:36:52.732Z,3.65
2023-04-02T01:40:19.045Z,2.45
2023-04-02T01:43:12.292Z,2.33
2023-04-02T01:46:01.859Z,1.75
2023-04-02T01:48:49.200Z,2.25
2023-04-02T01:51:41.275Z,2.92
2023-04-02T01:54:29.075Z,1.40
2023-04-02T01:57:16.783Z,3.97
2023-04-02T02:00:10.291Z,2.22
2023-04-02T02:03:01.036Z,16.10
2023-04-02T02:05:48.188Z,1.30
2023-04-02T02:08:55.313Z,5.03
2023-04-02T02:11:42.070Z,1.67
2023-04-02T02:14:30.681Z,2.10
2023-04-02T02:17:24.293Z,3.53
2023-04-02T02:20:11.430Z,3.10
2023-04-02T02:22:58.260Z,4.43
2023-04-02T02:25:45.437Z,5.63
2023-04-02T02:28:36.671Z,2.25
2023-04-02T02:31:28.222Z,3.50
2023-04-02T02:34:20.137Z,8.43
2023-04-02T02:37:23.372Z,2.40
2023-04-02T02:40:24.721Z,2.08
2023-04-02T02:43:13.525Z,2.72
2023-04-02T02:46:00.015Z,2.20
2023-04-02T02:48:46.871Z,2.20
2023-04-02T02:51:49.234Z,2.72
2023-04-02T02:54:43.052Z,7.28
2023-04-02T02:57:32.725Z,3.20
2023-04-02T03:00:19.907Z,3.90
2023-04-02T03:03:14.001Z,6.13
2023-04-02T03:06:03.513Z,11.13
2023-04-02T03:09:12.339Z,12.10
2023-04-02T03:12:10.427Z,6.35
2023-04-02T03:15:08.579Z,3.30
2023-04-02T03:18:14.404Z,5.10
2023-04-02T03:21:20.756Z,5.45
2023-04-02T03:24:22.829Z,1.73
2023-04-02T03:27:23.084Z,2.70
2023-04-02T03:30:28.884Z,4.40
2023-04-02T03:33:33.213Z,2.72
2023-04-02T03:36:21.253Z,5.60
2023-04-02T03:39:32.473Z,2.65
2023-04-02T03:42:26.379Z,3.92
2023-04-02T03:45:27.425Z,5.75
2023-04-02T03:48:40.682Z,2.00
2023-04-02T03:51:53.470Z,2.40
2023-04-02T03:54:41.046Z,2.72
2023-04-02T03:58:07.763Z,8.27
2023-04-02T04:00:56.802Z,7.43
2023-04-02T04:03:47.433Z,10.25
2023-04-02T04:06:34.934Z,13.52
2023-04-02T04:09:27.492Z,5.22
2023-04-02T04:12:26.923Z,3.10
2023-04-02T04:15:25.759Z,12.77
2023-04-02T04:18:21.676Z,7.45
2023-04-02T04:21:30.035Z,13.30
2023-04-02T04:24:25.203Z,3.30
2023-04-02T04:27:25.018Z,9.30
2023-04-02T04:30:51.389Z,4.22
2023-04-02T04:33:42.813Z,6.50
2023-04-02T04:36:48.059Z,6.78
2023-04-02T04:39:48.977Z,15.00
2023-04-02T04:42:38.659Z,6.32
2023-04-02T04:45:36.759Z,2.42
2023-04-02T04:48:40.044Z,3.90
2023-04-02T04:57:09.602Z,5.35
2023-04-02T05:00:01.377Z,11.10
2023-04-02T05:02:52.377Z,2.88
2023-04-02T05:07:00.590Z,5.13
2023-04-02T05:10:15.769Z,2.45
2023-04-02T05:17:28.603Z,2.95
2023-04-02T05:21:18.516Z,3.92
2023-04-02T05:24:29.186Z,8.15
2023-04-02T05:27:31.510Z,8.48
2023-04-02T05:30:24.571Z,4.55
2023-04-02T05:33:37.785Z,5.93
2023-04-02T05:36:29.310Z,3.00
2023-04-02T05:39:24.132Z,2.97
2023-04-02T05:42:23.997Z,7.68
2023-04-02T05:45:37.612Z,6.85
2023-04-02T05:48:35.153Z,4.80
2023-04-02T05:51:29.159Z,7.38
2023-04-02T05:54:39.155Z,4.43
2023-04-02T05:57:44.584Z,12.05
2023-04-02T06:00:36.531Z,2.78
2023-04-02T06:03:41.105Z,5.90
2023-04-02T06:07:08.152Z,8.75
2023-04-02T06:10:05.117Z,2.63
2023-04-02T06:13:00.959Z,4.57
2023-04-02T06:15:48.287Z,7.82
2023-04-02T06:18:40.615Z,7.75
2023-04-02T06:21:26.246Z,9.38
2023-04-02T06:24:17.432Z,11.02
2023-04-02T06:27:07.197Z,5.30
2023-04-02T06:29:57.405Z,9.75
2023-04-02T06:32:44.818Z,5.60
2023-04-02T06:35:42.621Z,5.03
2023-04-02T06:38:31.604Z,13.32
2023-04-02T06:41:24.032Z,9.02
2023-04-02T06:44:28.346Z,5.85
2023-04-02T06:47:34.049Z,4.97
2023-04-02T06:50:33.475Z,10.48
2023-04-02T06:53:31.478Z,8.73
2023-04-02T06:56:46.861Z,5.72
2023-04-02T06:59:38.481Z,7.28
2023-04-02T07:02:36.004Z,7.95
2023-04-02T07:05:24.017Z,4.97
2023-04-02T07:08:10.433Z,5.53
2023-04-02T07:10:56.898Z,11.45
2023-04-02T07:13:44.090Z,16.70
2023-04-02T07:16:33.268Z,8.48
2023-04-02T07:19:22.286Z,13.75
2023-04-02T07:22:12.680Z,12.20
2023-04-02T07:25:01.169Z,9.55
2023-04-02T07:27:47.384Z,16.17
2023-04-02T07:30:33.121Z,9.38
2023-04-02T07:33:25.301Z,22.10
2023-04-02T07:36:24.293Z,5.95
2023-04-02T07:39:11.098Z,24.70
2023-04-02T07:41:59.453Z,43.28
2023-04-02T07:44:45.339Z,76.82
2023-04-02T07:47:32.008Z,54.15
2023-04-02T07:50:18.061Z,196.25
2023-04-02T07:53:04.311Z,132.60
2023-04-02T07:55:53.032Z,75.93
2023-04-02T07:58:38.779Z,42.30
2023-04-02T08:01:26.517Z,13.60
2023-04-02T08:04:23.005Z,15.73
2023-04-02T08:07:09.148Z,14.02
2023-04-02T08:09:55.097Z,13.00
2023-04-02T08:12:40.713Z,22.33
2023-04-02T08:15:26.371Z,16.15
2023-04-02T08:18:12.433Z,12.27
2023-04-02T08:20:58.732Z,22.10
2023-04-02T08:23:44.975Z,250.63
2023-04-02T08:26:31.307Z,150.15
2023-04-02T08:29:17.180Z,85.07
2023-04-02T08:32:03.299Z,24.10
2023-04-02T08:34:49.217Z,21.02
2023-04-02T08:37:34.990Z,17.88
2023-04-02T08:40:33.842Z,21.08
2023-04-02T08:43:42.106Z,22.67
2023-04-02T08:46:46.333Z,17.52
2023-04-02T08:49:58.297Z,31.08
2023-04-02T08:52:44.195Z,21.75
2023-04-02T09:00:13.680Z,17.30
2023-04-02T09:04:12.782Z,18.33
2023-04-02T09:07:00.096Z,22.38
2023-04-02T09:09:50.083Z,25.70
2023-04-02T09:13:48.591Z,12.88
2023-04-02T09:17:16.569Z,12.27
2023-04-02T09:20:21.411Z,15.25
2023-04-02T09:28:04.986Z,15.07
2023-04-02T09:31:35.146Z,13.35
2023-04-02T09:39:27.556Z,17.55
2023-04-02T09:42:46.676Z,13.82
2023-04-02T09:45:32.962Z,17.67
2023-04-02T09:48:23.454Z,9.95
2023-04-02T09:51:44.131Z,15.18
2023-04-02T09:54:29.753Z,13.13
2023-04-02T09:57:27.409Z,11.68
2023-04-02T10:00:32.547Z,16.13
2023-04-02T10:03:27.295Z,12.82
2023-04-02T10:06:15.082Z,12.10
2023-04-02T10:09:22.248Z,10.35
2023-04-02T10:12:21.176Z,17.15
2023-04-02T10:15:07.867Z,11.02
2023-04-02T10:18:08.357Z,12.35
2023-04-02T10:20:57.506Z,18.08
2023-04-02T10:23:43.756Z,24.67
2023-04-02T10:26:38.597Z,18.55
2023-04-02T10:29:42.889Z,10.35
2023-04-02T10:32:42.092Z,8.35
2023-04-02T10:35:40.121Z,11.43
2023-04-02T10:38:45.459Z,12.82
2023-04-02T10:41:53.545Z,9.70
2023-04-02T10:44:43.650Z,21.50
2023-04-02T10:47:50.948Z,9.55
2023-04-02T10:51:20.660Z,7.50
2023-04-02T10:54:39.916Z,9.75
2023-04-02T10:57:41.273Z,19.55
2023-04-02T11:01:16.950Z,17.20
2023-04-02T11:04:51.239Z,19.90
2023-04-02T11:08:05.099Z,18.73
2023-04-02T11:10:57.720Z,14.65
2023-04-02T11:14:05.167Z,6.57
2023-04-02T11:16:52.689Z,9.93
2023-04-02T11:20:43.426Z,7.70
2023-04-02T11:23:36.805Z,2.47
2023-04-02T11:26:53.753Z,1.88
2023-04-02T11:34:01.027Z,21.83
2023-04-02T11:36:55.798Z,7.75
2023-04-02T11:39:56.944Z,13.77
2023-04-02T11:42:49.822Z,13.63
2023-04-02T11:45:54.877Z,10.77
2023-04-02T11:48:41.000Z,16.02
2023-04-02T11:51:32.975Z,16.10
2023-04-02T11:54:38.417Z,17.50
2023-04-02T11:58:03.071Z,2.75
2023-04-02T12:01:16.886Z,92.60
2023-04-02T12:12:39.889Z,13.07
2023-04-02T12:15:44.750Z,5.15
2023-04-02T12:18:33.181Z,3.42
2023-04-02T12:21:21.038Z,4.63
2023-04-02T12:24:19.422Z,8.98
2023-04-02T12:27:42.518Z,5.22
2023-04-02T12:30:28.654Z,5.38
2023-04-02T12:37:03.748Z,8.57
2023-04-02T12:40:04.688Z,3.15
2023-04-02T12:42:50.673Z,5.75
2023-04-02T12:46:03.721Z,6.35
2023-04-02T12:49:23.788Z,2.70
2023-04-02T12:52:12.385Z,3.42
2023-04-02T12:55:03.096Z,4.35
2023-04-02T12:57:50.198Z,5.03
2023-04-02T13:00:36.784Z,5.88
2023-04-02T13:03:23.207Z,3.28
2023-04-02T13:06:23.411Z,1.48
2023-04-02T13:09:35.838Z,6.35
2023-04-02T13:12:38.742Z,2.75
2023-04-02T13:15:37.236Z,1.90
2023-04-02T13:18:23.528Z,1.98
2023-04-02T13:21:28.339Z,2.72
2023-04-02T13:24:20.629Z,8.40
2023-04-02T13:27:06.655Z,6.13
2023-04-02T13:29:52.642Z,16.73
2023-04-02T13:32:39.321Z,18.77
2023-04-02T13:35:26.740Z,12.32
2023-04-02T13:38:15.122Z,11.35
2023-04-02T13:41:00.921Z,2.58
2023-04-02T13:43:47.028Z,3.97
2023-04-02T13:46:34.777Z,5.45
2023-04-02T13:49:21.552Z,5.68
2023-04-02T13:52:11.410Z,2.38
2023-04-02T13:55:00.703Z,5.65
2023-04-02T13:57:46.585Z,3.97
2023-04-02T14:00:32.643Z,2.35
2023-04-02T14:03:22.432Z,7.15
2023-04-02T14:06:52.489Z,3.65
2023-04-02T14:10:07.702Z,5.68
2023-04-02T14:13:18.434Z,32.92
2023-04-02T14:16:16.503Z,11.68
2023-04-02T14:19:26.091Z,17.85
2023-04-02T14:22:46.292Z,12.98
2023-04-02T14:25:41.253Z,15.80
2023-04-02T14:28:49.804Z,8.27
2023-04-02T14:32:09.805Z,19.02
2023-04-02T14:35:07.676Z,9.35
2023-04-02T14:38:15.548Z,8.23
2023-04-02T14:41:24.948Z,10.70
2023-04-02T14:44:12.348Z,9.07
2023-04-02T14:47:23.346Z,5.18
2023-04-02T14:50:28.080Z,45.85
2023-04-02T14:53:51.737Z,29.23
2023-04-02T14:57:16.986Z,11.00
2023-04-02T15:00:24.406Z,13.68
2023-04-02T15:03:26.011Z,10.07
2023-04-02T15:06:19.035Z,9.48
2023-04-02T15:09:27.673Z,5.57
2023-04-02T15:12:24.047Z,5.80
2023-04-02T15:15:40.819Z,3.58
2023-04-02T15:18:27.464Z,11.20
2023-04-02T15:21:19.462Z,21.67
2023-04-02T15:24:11.509Z,28.35
2023-04-02T15:27:35.034Z,18.38
2023-04-02T15:30:28.041Z,4.78
2023-04-02T15:33:38.900Z,3.85
2023-04-02T15:36:41.566Z,3.88
2023-04-02T15:39:36.854Z,7.28
2023-04-02T15:42:29.550Z,7.88
2023-04-02T15:45:22.871Z,3.80
2023-04-02T15:48:24.334Z,3.75
2023-04-02T15:51:26.488Z,16.48
2023-04-02T15:54:29.952Z,13.25
2023-04-02T15:57:29.454Z,9.40
2023-04-02T16:00:32.723Z,3.88
2023-04-02T16:03:18.609Z,1.38
2023-04-02T16:06:26.654Z,2.10
2023-04-02T16:09:23.318Z,1.65
2023-04-02T16:12:16.187Z,6.55
2023-04-02T16:15:15.601Z,4.93
2023-04-02T16:18:26.871Z,6.30
2023-04-02T16:21:16.004Z,9.73
2023-04-02T16:24:01.913Z,5.97
2023-04-02T16:27:16.333Z,2.65
2023-04-02T16:30:35.814Z,6.45
2023-04-02T16:33:35.633Z,7.40
2023-04-02T16:36:43.065Z,7.05
2023-04-02T16:39:57.164Z,3.92
2023-04-02T16:43:15.885Z,8.45
2023-04-02T16:46:22.541Z,9.88
2023-04-02T16:49:36.913Z,7.25
2023-04-02T16:52:47.716Z,2.00
2023-04-02T16:56:08.050Z,8.38
2023-04-02T16:59:09.369Z,3.45
2023-04-02T17:02:36.072Z,5.78
2023-04-02T17:05:28.495Z,3.80
2023-04-02T17:08:24.713Z,5.25
2023-04-02T17:11:26.109Z,3.78
2023-04-02T17:14:24.338Z,8.32
2023-04-02T17:17:12.337Z,4.20
2023-04-02T17:20:00.742Z,4.03
2023-04-02T17:22:47.595Z,3.78
2023-04-02T17:25:37.175Z,3.97
2023-04-02T17:28:29.264Z,10.73
2023-04-02T17:31:25.592Z,4.82
2023-04-02T17:34:14.002Z,2.55
2023-04-02T17:37:07.052Z,3.45
2023-04-02T17:40:04.273Z,8.80
2023-04-02T17:43:02.803Z,26.20
2023-04-02T17:45:51.912Z,14.90
2023-04-02T17:48:47.970Z,16.77
2023-04-02T17:51:45.618Z,8.30
2023-04-02T17:54:59.604Z,9.95
2023-04-02T17:58:22.920Z,14.07
2023-04-02T18:01:18.976Z,13.57
2023-04-02T18:04:26.448Z,9.63
2023-04-02T18:07:12.413Z,6.15
2023-04-02T18:10:16.146Z,8.50
2023-04-02T18:13:28.036Z,5.50
2023-04-02T18:16:27.252Z,7.35
2023-04-02T18:19:21.449Z,8.30
2023-04-02T18:22:33.632Z,4.18
2023-04-02T18:25:50.204Z,6.05
2023-04-02T18:28:41.933Z,6.15
2023-04-02T18:31:52.674Z,7.57
2023-04-02T18:35:13.162Z,10.50
2023-04-02T18:38:21.970Z,7.10
2023-04-02T18:41:19.756Z,6.35
2023-04-02T18:44:33.504Z,13.13
2023-04-02T18:47:35.481Z,8.73
2023-04-02T18:50:28.101Z,10.77
2023-04-02T18:53:19.422Z,13.13
2023-04-02T18:56:11.453Z,12.93
2023-04-02T18:59:13.449Z,11.10
2023-04-02T19:02:01.443Z,10.43
2023-04-02T19:04:58.596Z,8.88
2023-04-02T19:07:46.664Z,10.75
2023-04-02T19:10:38.577Z,5.93
2023-04-02T19:13:24.545Z,6.85
2023-04-02T19:16:19.617Z,9.45
2023-04-02T19:19:21.889Z,10.82
2023-04-02T19:22:50.760Z,16.38
2023-04-02T19:25:49.633Z,19.27
2023-04-02T19:29:19.624Z,21.92
2023-04-02T19:32:27.720Z,13.80
2023-04-02T19:35:22.664Z,18.67
2023-04-02T19:38:29.600Z,16.65
2023-04-02T19:41:51.545Z,11.15
2023-04-02T19:44:43.261Z,10.77
2023-04-02T19:47:29.656Z,23.00
2023-04-02T19:50:34.259Z,13.20
2023-04-02T19:53:20.410Z,15.00
2023-04-02T19:56:06.486Z,16.42
2023-04-02T19:58:52.608Z,9.25
2023-04-02T20:01:39.108Z,15.57
2023-04-02T20:04:25.635Z,15.02
2023-04-02T20:07:12.565Z,13.90
2023-04-02T20:09:58.751Z,18.15
2023-04-02T20:12:47.912Z,22.42
2023-04-02T20:16:14.557Z,24.48
2023-04-02T20:19:18.972Z,13.45
2023-04-02T20:22:49.489Z,9.00
2023-04-02T20:25:35.666Z,11.13
2023-04-02T20:28:22.471Z,13.48
2023-04-02T20:31:50.282Z,7.65
2023-04-02T20:34:36.867Z,8.70
2023-04-02T20:37:22.982Z,8.75
2023-04-02T20:40:10.177Z,5.60
2023-04-02T20:43:19.123Z,10.70
2023-04-02T20:46:08.343Z,9.75
2023-04-02T20:48:57.266Z,12.00
2023-04-02T20:51:43.297Z,9.07
2023-04-02T20:54:28.926Z,9.50
2023-04-02T20:57:14.496Z,8.35
2023-04-02T21:00:02.613Z,4.57
2023-04-02T21:03:21.237Z,7.05
2023-04-02T21:06:18.762Z,6.47
2023-04-02T21:10:14.250Z,10.73
2023-04-02T21:13:00.182Z,6.88
2023-04-02T21:15:45.872Z,8.25
2023-04-02T21:19:08.394Z,4.95
2023-04-02T21:21:54.823Z,5.18
2023-04-02T21:24:40.630Z,10.70
2023-04-02T21:27:26.473Z,14.55
2023-04-02T21:30:12.704Z,20.85
2023-04-02T21:32:58.815Z,20.67
2023-04-02T21:35:44.660Z,30.30
2023-04-02T21:38:32.582Z,24.17
2023-04-02T21:41:22.348Z,17.58
2023-04-02T21:44:10.617Z,28.58
2023-04-02T21:46:56.507Z,22.52
2023-04-02T21:49:42.909Z,16.20
2023-04-02T21:52:28.830Z,15.45
2023-04-02T21:55:14.594Z,20.33
2023-04-02T21:58:00.374Z,14.05
2023-04-02T22:00:46.253Z,12.90
2023-04-02T22:03:33.939Z,13.90
2023-04-02T22:06:21.124Z,8.93
2023-04-02T22:09:10.016Z,9.23
2023-04-02T22:12:01.564Z,13.00
2023-04-02T22:14:47.392Z,10.52
2023-04-02T22:17:33.260Z,13.90
2023-04-02T22:20:18.914Z,10.93
2023-04-02T22:23:16.545Z,8.50
2023-04-02T22:26:10.740Z,10.02
2023-04-02T22:29:31.624Z,11.68
2023-04-02T22:32:29.943Z,5.45
2023-04-02T22:35:22.263Z,9.80
2023-04-02T22:38:09.182Z,9.27
2023-04-02T22:41:08.744Z,7.03
2023-04-02T22:43:59.052Z,7.65
2023-04-02T22:46:45.035Z,5.68
2023-04-02T22:49:30.723Z,5.43
2023-04-02T22:52:19.488Z,4.20
2023-04-02T22:55:08.065Z,4.28
2023-04-02T22:57:54.133Z,5.43
2023-04-02T23:00:40.049Z,5.40
2023-04-02T23:03:25.943Z,5.60
2023-04-02T23:06:17.399Z,3.50
2023-04-02T23:09:04.244Z,3.60
2023-04-02T23:11:50.093Z,6.05
2023-04-02T23:14:39.910Z,2.83
2023-04-02T23:17:25.582Z,2.05
2023-04-02T23:20:29.622Z,3.10
2023-04-02T23:26:12.776Z,3.45
2023-04-02T23:28:59.749Z,5.30
2023-04-02T23:32:17.002Z,3.47
2023-04-02T23:44:16.751Z,2.08
2023-04-02T23:47:02.406Z,3.42
2023-04-02T23:50:56.441Z,3.03
2023-04-02T23:53:43.470Z,3.10
2023-04-02T23:56:29.676Z,3.55
2023-04-02T23:59:15.617Z,35.38
